Terminal Aerodrome Forecast
Issued by NWS Spokane, WA

Home | Current Version | Previous Version | Text Only | Print | Product List | Glossary On
Versions: 1 2 3 4 5 6 7 8 9 10 11 12 13 14 15 16 17 18 19 20 21 22 23 24 25 26 27 28 29 30 31 32 33 34 35 36 37 38 39 40 41 42 43 44 45 46 47
717
FTUS46 KOTX 060705 AAA
TAFGEG
TAF AMD
KGEG 060705Z 0607/0706 22027G34KT P6SM -RA BKN040 OVC050
     FM060800 23020G35KT P6SM BKN040 BKN100
     FM061500 24017G30KT P6SM BKN070 BKN100
     FM062100 22012KT P6SM SCT080 BKN150
     FM070200 21005KT P6SM SCT015 BKN050=

USA.gov is the U.S. government's official web portal to all federal, state and local government web resources and services.